Time;durP1;ratioP1;P1;durP2;ratioP2;P2;SDS_P1;SDS_P2;PMS_P1;PMS_P2;Temp;Humidity;BMP_temperature;BMP_pressure;BME280_temperature;BME280_humidity;BME280_pressure;Samples;Min_cycle;Max_cycle;Signal;HPM_P1;HPM_P2
2021/08/09 00:01:31;;;;;;;2.63;2.43;;;;;;;;;;5056173;28;20551;-63
2021/08/09 00:03:56;;;;;;;3.23;2.03;;;;;;;;;;5056122;28;20638;-63
2021/08/09 00:06:23;;;;;;;4.40;2.37;;;;;;;;;;5055702;28;20221;-63
2021/08/09 00:08:48;;;;;;;3.47;2.47;;;;;;;;;;5056028;28;20592;-63
2021/08/09 00:11:14;;;;;;;4.17;1.77;;;;;;;;;;5055463;28;20475;-64
2021/08/09 00:13:39;;;;;;;2.63;2.43;;;;;;;;;;5055749;28;20308;-63
2021/08/09 00:16:04;;;;;;;3.30;2.30;;;;;;;;;;5055594;28;20231;-63
2021/08/09 00:18:30;;;;;;;4.27;2.50;;;;;;;;;;5055865;28;20221;-63
2021/08/09 00:20:57;;;;;;;2.23;1.87;;;;;;;;;;5055948;28;20231;-64
2021/08/09 00:23:22;;;;;;;3.00;2.23;;;;;;;;;;5054645;28;20221;-63
2021/08/09 00:25:47;;;;;;;3.00;2.70;;;;;;;;;;5055718;28;20452;-63
2021/08/09 00:28:13;;;;;;;2.67;2.47;;;;;;;;;;5055370;28;20315;-64
2021/08/09 00:30:38;;;;;;;4.50;2.13;;;;;;;;;;5055652;28;20255;-65
2021/08/09 00:33:03;;;;;;;2.20;1.80;;;;;;;;;;5055311;28;20695;-63
2021/08/09 00:35:29;;;;;;;2.70;2.20;;;;;;;;;;5055552;28;20241;-64
2021/08/09 00:37:54;;;;;;;3.90;2.20;;;;;;;;;;5055813;28;20228;-63
2021/08/09 00:40:20;;;;;;;2.73;2.33;;;;;;;;;;5055062;28;20460;-63
2021/08/09 00:42:46;;;;;;;4.20;2.50;;;;;;;;;;5055400;28;20229;-64
2021/08/09 00:45:11;;;;;;;3.07;2.00;;;;;;;;;;5054988;28;20644;-63
2021/08/09 00:47:37;;;;;;;2.60;2.17;;;;;;;;;;5055295;28;20521;-63
2021/08/09 00:50:03;;;;;;;3.23;2.20;;;;;;;;;;5054859;28;20653;-63
2021/08/09 00:52:28;;;;;;;2.53;2.30;;;;;;;;;;5055224;28;20296;-63
2021/08/09 00:54:53;;;;;;;3.10;2.30;;;;;;;;;;5055350;28;20551;-63
2021/08/09 00:57:19;;;;;;;5.53;1.90;;;;;;;;;;5054706;28;20303;-63
2021/08/09 00:59:44;;;;;;;3.60;2.50;;;;;;;;;;5054964;28;20655;-63
2021/08/09 01:02:09;;;;;;;3.53;2.43;;;;;;;;;;5053626;28;20213;-63
2021/08/09 01:04:35;;;;;;;4.90;2.10;;;;;;;;;;5055135;28;20629;-63
2021/08/09 01:07:00;;;;;;;2.80;2.13;;;;;;;;;;5053939;28;20241;-63
2021/08/09 01:09:39;;;;;;;1.93;1.80;;;;;;;;;;5054485;28;20251;-63
2021/08/09 01:12:15;;;;;;;3.20;1.90;;;;;;;;;;5053331;28;20577;-64
2021/08/09 01:14:40;;;;;;;4.00;2.63;;;;;;;;;;5054651;28;20816;-62
2021/08/09 01:17:07;;;;;;;2.67;2.47;;;;;;;;;;5054370;28;20502;-63
2021/08/09 01:19:38;;;;;;;2.33;2.13;;;;;;;;;;5054568;28;20547;-63
2021/08/09 01:22:10;;;;;;;2.60;2.10;;;;;;;;;;5054157;28;20828;-63
2021/08/09 01:25:08;;;;;;;2.47;2.20;;;;;;;;;;5053621;28;20470;-63
2021/08/09 01:27:34;;;;;;;2.87;2.40;;;;;;;;;;5054164;28;20474;-64
2021/08/09 01:30:05;;;;;;;2.43;2.23;;;;;;;;;;5053516;28;20463;-63
2021/08/09 01:32:32;;;;;;;3.70;2.07;;;;;;;;;;5053140;28;20452;-63
2021/08/09 01:34:58;;;;;;;2.00;1.80;;;;;;;;;;5054374;28;20456;-62
2021/08/09 01:37:25;;;;;;;3.03;2.10;;;;;;;;;;5052874;28;20460;-63
2021/08/09 01:39:50;;;;;;;2.50;2.30;;;;;;;;;;5054304;28;20525;-60
2021/08/09 01:42:16;;;;;;;2.07;1.53;;;;;;;;;;5053790;28;20464;-60
2021/08/09 01:44:41;;;;;;;2.30;2.10;;;;;;;;;;5053269;28;20243;-60
2021/08/09 01:47:07;;;;;;;2.77;2.10;;;;;;;;;;5054263;28;20487;-59
2021/08/09 01:49:32;;;;;;;2.30;2.10;;;;;;;;;;5053385;28;20221;-60
2021/08/09 01:52:00;;;;;;;3.17;2.07;;;;;;;;;;5053194;28;20601;-59
2021/08/09 01:54:25;;;;;;;2.40;2.20;;;;;;;;;;5052695;28;20213;-59
2021/08/09 01:56:50;;;;;;;3.80;2.03;;;;;;;;;;5054175;28;20459;-59
2021/08/09 01:59:16;;;;;;;3.97;2.10;;;;;;;;;;5052452;28;20281;-59
2021/08/09 02:01:41;;;;;;;6.30;2.00;;;;;;;;;;5054172;28;20209;-59
2021/08/09 02:04:08;;;;;;;2.67;2.10;;;;;;;;;;5054042;28;20209;-60
2021/08/09 02:06:33;;;;;;;2.73;1.73;;;;;;;;;;5053394;28;20224;-59
2021/08/09 02:08:59;;;;;;;3.00;2.03;;;;;;;;;;5053890;28;20802;-60
2021/08/09 02:11:39;;;;;;;1.80;1.70;;;;;;;;;;5053344;28;20217;-60
2021/08/09 02:14:06;;;;;;;2.27;1.90;;;;;;;;;;5053987;28;20216;-60
2021/08/09 02:16:37;;;;;;;2.30;1.90;;;;;;;;;;5052464;28;20455;-60
2021/08/09 02:19:06;;;;;;;2.30;2.10;;;;;;;;;;5035949;28;20443;-60
2021/08/09 02:21:40;;;;;;;2.00;1.90;;;;;;;;;;5053571;28;20463;-60
2021/08/09 02:24:13;;;;;;;2.00;1.80;;;;;;;;;;5053823;28;20467;-59
2021/08/09 02:26:46;;;;;;;2.10;1.90;;;;;;;;;;5052937;28;20720;-59
2021/08/09 02:29:15;;;;;;;1.97;1.60;;;;;;;;;;5053578;28;20459;-60
2021/08/09 02:31:42;;;;;;;2.90;2.10;;;;;;;;;;5053430;28;20447;-59
2021/08/09 02:34:13;;;;;;;2.40;1.50;;;;;;;;;;5053616;28;20455;-60
2021/08/09 02:36:39;;;;;;;3.10;2.33;;;;;;;;;;5052276;28;20446;-60
2021/08/09 02:39:05;;;;;;;4.80;2.13;;;;;;;;;;5052675;28;20451;-60
2021/08/09 02:41:30;;;;;;;2.60;2.40;;;;;;;;;;5053061;28;20456;-59
2021/08/09 02:43:56;;;;;;;2.47;1.97;;;;;;;;;;5053552;28;20315;-59
2021/08/09 02:46:21;;;;;;;2.93;1.90;;;;;;;;;;5053236;28;20225;-59
2021/08/09 02:48:48;;;;;;;3.37;2.30;;;;;;;;;;5052415;28;20296;-59
2021/08/09 02:51:13;;;;;;;4.70;2.33;;;;;;;;;;5053320;28;20286;-59
2021/08/09 02:53:38;;;;;;;2.30;1.90;;;;;;;;;;5052028;28;20467;-60
2021/08/09 02:56:04;;;;;;;2.53;1.90;;;;;;;;;;5052405;28;20217;-59
2021/08/09 02:58:29;;;;;;;2.57;2.00;;;;;;;;;;5052824;28;20209;-59
2021/08/09 03:00:56;;;;;;;2.03;1.73;;;;;;;;;;5053364;28;20574;-59
2021/08/09 03:03:22;;;;;;;3.53;2.30;;;;;;;;;;5052034;28;20223;-60
2021/08/09 03:05:53;;;;;;;3.07;1.80;;;;;;;;;;5053467;28;20448;-60
2021/08/09 03:08:19;;;;;;;3.73;2.80;;;;;;;;;;5052891;28;20860;-59
2021/08/09 03:10:44;;;;;;;2.30;1.80;;;;;;;;;;5052218;28;20480;-60
2021/08/09 03:13:10;;;;;;;3.33;2.10;;;;;;;;;;5052010;28;20260;-60
2021/08/09 03:15:37;;;;;;;3.40;2.00;;;;;;;;;;5051962;28;20699;-60
2021/08/09 03:18:02;;;;;;;2.33;2.00;;;;;;;;;;5053465;28;20804;-60
2021/08/09 03:20:28;;;;;;;2.63;1.73;;;;;;;;;;5052609;28;20463;-60
2021/08/09 03:22:54;;;;;;;3.20;2.10;;;;;;;;;;5053046;28;20213;-59
2021/08/09 03:25:19;;;;;;;2.13;1.73;;;;;;;;;;5052597;28;20454;-60
2021/08/09 03:27:44;;;;;;;2.33;1.80;;;;;;;;;;5053032;28;20662;-59
2021/08/09 03:30:10;;;;;;;2.00;1.80;;;;;;;;;;5055007;28;20261;-59
2021/08/09 03:32:35;;;;;;;2.30;2.10;;;;;;;;;;5056327;28;20521;-59
2021/08/09 03:35:00;;;;;;;2.93;1.83;;;;;;;;;;5056675;28;20237;-60
2021/08/09 03:37:26;;;;;;;3.30;2.10;;;;;;;;;;5056278;28;20230;-60
2021/08/09 03:39:51;;;;;;;2.77;1.60;;;;;;;;;;5056585;28;20307;-59
2021/08/09 03:42:19;;;;;;;3.27;1.70;;;;;;;;;;5056564;28;20213;-60
2021/08/09 03:44:45;;;;;;;3.33;1.87;;;;;;;;;;5056174;28;20225;-60
2021/08/09 03:47:10;;;;;;;1.90;1.70;;;;;;;;;;5056719;28;20473;-60
2021/08/09 03:49:35;;;;;;;4.40;2.50;;;;;;;;;;5055974;28;20312;-59
2021/08/09 03:52:01;;;;;;;4.13;1.90;;;;;;;;;;5056337;28;20520;-60
2021/08/09 03:54:26;;;;;;;2.90;2.00;;;;;;;;;;5056027;28;20209;-60
2021/08/09 03:56:51;;;;;;;2.20;2.00;;;;;;;;;;5056185;28;20296;-59
2021/08/09 03:59:16;;;;;;;8.20;2.37;;;;;;;;;;5056183;28;20225;-60
2021/08/09 04:01:42;;;;;;;5.90;2.97;;;;;;;;;;5038201;28;20237;-60
2021/08/09 04:04:07;;;;;;;2.27;2.00;;;;;;;;;;5056281;28;20213;-61
2021/08/09 04:06:33;;;;;;;3.63;2.10;;;;;;;;;;5055591;28;20304;-60
2021/08/09 04:08:58;;;;;;;3.43;1.77;;;;;;;;;;5056042;28;20299;-59
2021/08/09 04:11:24;;;;;;;3.03;2.17;;;;;;;;;;5055561;28;20300;-60
2021/08/09 04:13:49;;;;;;;2.17;1.70;;;;;;;;;;5054829;28;20221;-60
2021/08/09 04:16:14;;;;;;;2.50;2.20;;;;;;;;;;5055998;28;20354;-60
2021/08/09 04:18:40;;;;;;;2.17;2.00;;;;;;;;;;5054544;28;20209;-59
2021/08/09 04:21:05;;;;;;;3.17;2.37;;;;;;;;;;5055837;28;20221;-60
2021/08/09 04:23:30;;;;;;;2.43;2.23;;;;;;;;;;5055571;28;20564;-60
2021/08/09 04:25:56;;;;;;;2.53;1.70;;;;;;;;;;5055603;28;20208;-59
2021/08/09 04:28:21;;;;;;;2.63;2.43;;;;;;;;;;5055629;28;20308;-59
2021/08/09 04:30:46;;;;;;;4.03;2.97;;;;;;;;;;5055069;28;20217;-59
2021/08/09 04:33:11;;;;;;;2.67;2.30;;;;;;;;;;5055659;28;20221;-59
2021/08/09 04:35:37;;;;;;;2.67;2.20;;;;;;;;;;5055228;28;20255;-60
2021/08/09 04:38:03;;;;;;;3.73;2.10;;;;;;;;;;5055603;28;20217;-59
2021/08/09 04:40:30;;;;;;;3.37;2.50;;;;;;;;;;5045656;28;20472;-60
2021/08/09 04:42:55;;;;;;;4.73;2.17;;;;;;;;;;5043058;28;20305;-60
2021/08/09 04:45:20;;;;;;;3.43;2.57;;;;;;;;;;5049825;28;20605;-60
2021/08/09 04:47:46;;;;;;;2.63;2.33;;;;;;;;;;5054807;28;20225;-61
2021/08/09 04:50:11;;;;;;;3.43;2.30;;;;;;;;;;5035759;28;20309;-60
2021/08/09 04:52:43;;;;;;;3.10;2.37;;;;;;;;;;5034779;28;20218;-60
2021/08/09 04:55:09;;;;;;;3.10;2.43;;;;;;;;;;5035130;28;20558;-60
2021/08/09 04:57:35;;;;;;;3.00;2.70;;;;;;;;;;5044378;28;20475;-59
2021/08/09 05:00:00;;;;;;;3.10;2.80;;;;;;;;;;5054956;28;20463;-60
2021/08/09 05:02:25;;;;;;;2.90;2.37;;;;;;;;;;5054517;28;20224;-61
2021/08/09 05:04:50;;;;;;;2.70;2.50;;;;;;;;;;5054945;28;20304;-60
2021/08/09 05:07:16;;;;;;;2.90;2.43;;;;;;;;;;5055016;28;20687;-60
2021/08/09 05:09:41;;;;;;;2.30;2.10;;;;;;;;;;5054534;28;20229;-60
2021/08/09 05:12:06;;;;;;;4.03;2.37;;;;;;;;;;5053728;28;20367;-60
2021/08/09 05:14:32;;;;;;;6.67;2.50;;;;;;;;;;5045283;28;20217;-60
2021/08/09 05:16:57;;;;;;;3.23;2.93;;;;;;;;;;5035029;28;20210;-60
2021/08/09 05:19:22;;;;;;;5.23;2.67;;;;;;;;;;5034658;28;20312;-61
2021/08/09 05:21:47;;;;;;;3.60;2.20;;;;;;;;;;5034555;28;20222;-58
2021/08/09 05:24:13;;;;;;;4.20;3.00;;;;;;;;;;5034636;28;20256;-60
2021/08/09 05:26:38;;;;;;;2.87;2.30;;;;;;;;;;5034328;28;20597;-59
2021/08/09 05:29:03;;;;;;;3.10;2.60;;;;;;;;;;5034528;28;20237;-60
2021/08/09 05:31:29;;;;;;;3.30;3.00;;;;;;;;;;5034216;28;20630;-60
2021/08/09 05:33:57;;;;;;;2.63;2.43;;;;;;;;;;5033516;28;20553;-60
2021/08/09 05:36:23;;;;;;;6.90;2.57;;;;;;;;;;5033578;28;20713;-60
2021/08/09 05:38:48;;;;;;;5.00;3.03;;;;;;;;;;5034074;28;20528;-60
2021/08/09 05:41:14;;;;;;;4.13;2.67;;;;;;;;;;5049217;28;20233;-60
2021/08/09 05:43:39;;;;;;;2.77;2.20;;;;;;;;;;5054089;28;20306;-60
2021/08/09 05:46:04;;;;;;;4.73;2.90;;;;;;;;;;5054115;28;20303;-61
2021/08/09 05:48:30;;;;;;;4.30;3.10;;;;;;;;;;5046181;28;20237;-60
2021/08/09 05:50:55;;;;;;;3.10;2.90;;;;;;;;;;5034282;28;20222;-60
2021/08/09 05:53:20;;;;;;;2.87;2.67;;;;;;;;;;5033669;28;20672;-59
2021/08/09 05:55:45;;;;;;;3.07;2.43;;;;;;;;;;5034032;28;20641;-59
2021/08/09 05:58:11;;;;;;;5.23;2.67;;;;;;;;;;5034234;28;20297;-59
2021/08/09 06:00:36;;;;;;;3.80;3.40;;;;;;;;;;5033690;28;20226;-60
2021/08/09 06:03:01;;;;;;;16.23;11.83;;;;;;;;;;5034139;28;20214;-58
2021/08/09 06:05:28;;;;;;;13.13;11.10;;;;;;;;;;5034114;28;20304;-60
2021/08/09 06:07:53;;;;;;;18.57;14.03;;;;;;;;;;5033682;28;20214;-60
2021/08/09 06:10:19;;;;;;;11.53;10.30;;;;;;;;;;5033910;28;20865;-59
2021/08/09 06:12:44;;;;;;;9.70;8.50;;;;;;;;;;5032588;28;20246;-59
2021/08/09 06:15:10;;;;;;;12.43;10.07;;;;;;;;;;5047129;28;20685;-60
2021/08/09 06:17:35;;;;;;;21.00;15.40;;;;;;;;;;5053390;28;20295;-61
2021/08/09 06:20:01;;;;;;;31.43;24.80;;;;;;;;;;5053698;28;20225;-60
2021/08/09 06:22:26;;;;;;;17.20;12.53;;;;;;;;;;5053959;28;20286;-60
2021/08/09 06:24:52;;;;;;;12.37;11.07;;;;;;;;;;5053307;28;20814;-59
2021/08/09 06:27:17;;;;;;;20.20;16.57;;;;;;;;;;5053770;28;20263;-60
2021/08/09 06:29:43;;;;;;;14.40;11.37;;;;;;;;;;5053075;28;20217;-60
2021/08/09 06:32:08;;;;;;;8.73;5.83;;;;;;;;;;5053713;28;20629;-60
2021/08/09 06:34:33;;;;;;;14.47;12.20;;;;;;;;;;5052813;28;20224;-60
2021/08/09 06:36:58;;;;;;;10.63;9.23;;;;;;;;;;5053636;28;20684;-60
2021/08/09 06:39:24;;;;;;;14.57;10.67;;;;;;;;;;5053647;28;20225;-60
2021/08/09 06:41:49;;;;;;;14.47;8.27;;;;;;;;;;5053198;28;20295;-60
2021/08/09 06:44:15;;;;;;;11.23;8.50;;;;;;;;;;5053628;28;20220;-61
2021/08/09 06:46:40;;;;;;;3.57;3.07;;;;;;;;;;5051997;28;20240;-59
2021/08/09 06:49:06;;;;;;;14.80;9.50;;;;;;;;;;5040955;28;20233;-60
2021/08/09 06:51:31;;;;;;;8.97;7.20;;;;;;;;;;5033121;28;20236;-60
2021/08/09 06:53:56;;;;;;;6.93;5.60;;;;;;;;;;5033611;28;20622;-61
2021/08/09 06:56:22;;;;;;;5.20;4.53;;;;;;;;;;5033433;28;20226;-60
2021/08/09 06:58:47;;;;;;;7.53;6.57;;;;;;;;;;5033090;28;20217;-60
2021/08/09 07:01:12;;;;;;;5.40;4.60;;;;;;;;;;5033621;28;20237;-60
2021/08/09 07:03:37;;;;;;;6.47;5.77;;;;;;;;;;5034152;28;20230;-60
2021/08/09 07:06:03;;;;;;;4.77;3.67;;;;;;;;;;5037333;28;20537;-60
2021/08/09 07:08:28;;;;;;;7.00;3.60;;;;;;;;;;5037429;28;20249;-60
2021/08/09 07:10:53;;;;;;;8.67;4.60;;;;;;;;;;5036838;28;20253;-60
2021/08/09 07:13:19;;;;;;;8.13;4.33;;;;;;;;;;5036860;28;20241;-60
2021/08/09 07:15:46;;;;;;;4.50;3.80;;;;;;;;;;5036666;28;20283;-61
2021/08/09 07:18:14;;;;;;;6.53;3.83;;;;;;;;;;5036869;28;20265;-60
2021/08/09 07:20:39;;;;;;;4.40;3.13;;;;;;;;;;5035466;28;20472;-60
2021/08/09 07:23:04;;;;;;;6.37;3.60;;;;;;;;;;5037163;28;20464;-60
2021/08/09 07:25:29;;;;;;;4.87;3.30;;;;;;;;;;5035989;28;20221;-60
2021/08/09 07:27:55;;;;;;;3.83;3.00;;;;;;;;;;5034338;28;20217;-61
2021/08/09 07:30:20;;;;;;;5.63;3.77;;;;;;;;;;5035104;28;20226;-61
2021/08/09 07:32:46;;;;;;;5.33;3.20;;;;;;;;;;5035529;28;20222;-60
2021/08/09 07:35:11;;;;;;;4.80;3.20;;;;;;;;;;5035998;28;20287;-61
2021/08/09 07:37:36;;;;;;;5.30;3.50;;;;;;;;;;5035603;28;20292;-61
2021/08/09 07:40:04;;;;;;;4.80;3.40;;;;;;;;;;5039042;28;20291;-60
2021/08/09 07:42:29;;;;;;;6.37;3.30;;;;;;;;;;5056502;28;20221;-60
2021/08/09 07:44:55;;;;;;;4.40;3.47;;;;;;;;;;5056247;28;20909;-60
2021/08/09 07:47:20;;;;;;;5.33;2.60;;;;;;;;;;5054017;28;20217;-59
2021/08/09 07:49:45;;;;;;;5.20;3.60;;;;;;;;;;5042720;28;20487;-61
2021/08/09 07:52:11;;;;;;;6.00;3.13;;;;;;;;;;5049227;28;20218;-60
2021/08/09 07:54:36;;;;;;;4.33;3.20;;;;;;;;;;5036223;28;20265;-61
2021/08/09 07:57:04;;;;;;;3.70;2.80;;;;;;;;;;5039435;28;20221;-60
2021/08/09 07:59:30;;;;;;;3.33;3.03;;;;;;;;;;5036042;28;20222;-60
2021/08/09 08:01:55;;;;;;;4.07;2.67;;;;;;;;;;5039967;28;20498;-60
2021/08/09 08:04:20;;;;;;;4.20;2.90;;;;;;;;;;5055303;28;20455;-60
2021/08/09 08:06:45;;;;;;;4.33;2.90;;;;;;;;;;5038105;28;20217;-61
2021/08/09 08:09:11;;;;;;;3.53;2.93;;;;;;;;;;5036008;28;20234;-60
2021/08/09 08:11:36;;;;;;;4.80;3.60;;;;;;;;;;5035583;28;20222;-61
2021/08/09 08:14:02;;;;;;;3.00;2.63;;;;;;;;;;5035978;28;20241;-61
2021/08/09 08:16:27;;;;;;;4.03;2.50;;;;;;;;;;5035528;28;20225;-60
2021/08/09 08:18:52;;;;;;;5.53;2.90;;;;;;;;;;5046268;28;20529;-60
2021/08/09 08:21:18;;;;;;;3.10;2.47;;;;;;;;;;5055466;28;20229;-60
2021/08/09 08:23:43;;;;;;;3.40;3.10;;;;;;;;;;5035274;28;20314;-61
2021/08/09 08:26:08;;;;;;;4.53;3.37;;;;;;;;;;5035689;28;20214;-59
2021/08/09 08:28:36;;;;;;;3.23;2.50;;;;;;;;;;5035599;28;20224;-60
2021/08/09 08:31:02;;;;;;;3.53;3.20;;;;;;;;;;5035266;28;20555;-59
2021/08/09 08:33:27;;;;;;;3.17;2.73;;;;;;;;;;5034699;28;20523;-60
2021/08/09 08:35:52;;;;;;;3.27;2.97;;;;;;;;;;5049887;28;20217;-60
2021/08/09 08:38:17;;;;;;;3.30;2.53;;;;;;;;;;5055429;28;20354;-61
2021/08/09 08:40:49;;;;;;;5.93;3.47;;;;;;;;;;5054872;28;20213;-59
2021/08/09 08:43:21;;;;;;;3.30;2.60;;;;;;;;;;5055355;28;20214;-61
2021/08/09 08:45:55;;;;;;;3.70;2.57;;;;;;;;;;5055032;28;20466;-60
2021/08/09 08:48:20;;;;;;;6.93;2.83;;;;;;;;;;5048910;28;20527;-61
2021/08/09 08:50:45;;;;;;;2.60;2.37;;;;;;;;;;5034862;28;20863;-61
2021/08/09 08:53:10;;;;;;;3.30;2.57;;;;;;;;;;5035163;28;20356;-59
2021/08/09 08:55:36;;;;;;;5.13;3.07;;;;;;;;;;5037524;28;20566;-60
2021/08/09 08:58:01;;;;;;;3.80;2.87;;;;;;;;;;5054553;28;20299;-59
2021/08/09 09:00:35;;;;;;;3.60;2.43;;;;;;;;;;5055004;28;20676;-60
2021/08/09 09:03:04;;;;;;;3.20;2.63;;;;;;;;;;5054805;28;20209;-60
2021/08/09 09:05:32;;;;;;;4.13;2.90;;;;;;;;;;5054909;28;20455;-61
2021/08/09 09:07:59;;;;;;;4.43;3.07;;;;;;;;;;5054571;28;20958;-60
2021/08/09 09:10:29;;;;;;;6.80;3.73;;;;;;;;;;5054723;28;20491;-60
2021/08/09 09:13:08;;;;;;;4.37;2.90;;;;;;;;;;5053952;28;20933;-60
2021/08/09 09:15:56;;;;;;;6.20;2.60;;;;;;;;;;5054712;28;20780;-61
2021/08/09 09:18:22;;;;;;;3.80;2.43;;;;;;;;;;5054251;28;20471;-60
2021/08/09 09:20:48;;;;;;;5.70;2.87;;;;;;;;;;5054560;28;20479;-60
2021/08/09 09:23:16;;;;;;;2.77;2.27;;;;;;;;;;5054563;28;20490;-61
2021/08/09 09:25:42;;;;;;;3.60;2.80;;;;;;;;;;5054144;28;20213;-60
2021/08/09 09:28:28;;;;;;;2.27;1.93;;;;;;;;;;5052569;28;20953;-61
2021/08/09 09:30:57;;;;;;;3.27;2.73;;;;;;;;;;5054267;28;20213;-60
2021/08/09 09:33:22;;;;;;;4.30;2.70;;;;;;;;;;5054439;28;20468;-60
2021/08/09 09:35:51;;;;;;;3.83;2.80;;;;;;;;;;5053908;28;20976;-61
2021/08/09 09:38:16;;;;;;;3.60;3.27;;;;;;;;;;5054214;28;20213;-60
2021/08/09 09:40:42;;;;;;;3.00;2.60;;;;;;;;;;5053903;28;20843;-59
2021/08/09 09:43:20;;;;;;;5.00;3.60;;;;;;;;;;5054390;28;20525;-61
2021/08/09 09:45:55;;;;;;;5.50;3.33;;;;;;;;;;5053805;28;20606;-60
2021/08/09 09:48:32;;;;;;;4.90;3.00;;;;;;;;;;5047891;28;20473;-60
2021/08/09 09:51:08;;;;;;;5.87;2.97;;;;;;;;;;5034109;28;20453;-61
2021/08/09 09:53:34;;;;;;;5.27;3.00;;;;;;;;;;5033846;28;20456;-60
2021/08/09 09:55:59;;;;;;;6.43;3.20;;;;;;;;;;5035510;28;20445;-60
2021/08/09 09:58:25;;;;;;;3.70;2.70;;;;;;;;;;5054045;28;20235;-61
2021/08/09 10:00:52;;;;;;;2.90;2.70;;;;;;;;;;5053745;28;20229;-63
2021/08/09 10:03:17;;;;;;;8.30;3.83;;;;;;;;;;5052346;28;20927;-63
2021/08/09 10:05:43;;;;;;;4.70;2.60;;;;;;;;;;5053242;28;20494;-63
2021/08/09 10:08:14;;;;;;;6.63;3.20;;;;;;;;;;5053681;28;20584;-63
2021/08/09 10:10:41;;;;;;;6.87;5.50;;;;;;;;;;5053288;28;20217;-64
2021/08/09 10:13:07;;;;;;;5.47;4.83;;;;;;;;;;5051696;28;20468;-64
2021/08/09 10:15:32;;;;;;;4.10;3.50;;;;;;;;;;5052936;28;20919;-64
2021/08/09 10:17:58;;;;;;;5.17;3.17;;;;;;;;;;5053347;28;20538;-63
2021/08/09 10:20:24;;;;;;;3.50;3.00;;;;;;;;;;5034639;28;20249;-63
2021/08/09 10:22:56;;;;;;;4.23;2.77;;;;;;;;;;5052436;28;20335;-63
2021/08/09 10:25:41;;;;;;;7.60;2.97;;;;;;;;;;5053891;28;20538;-63
2021/08/09 10:28:06;;;;;;;3.17;2.87;;;;;;;;;;5053211;28;20444;-63
2021/08/09 10:30:34;;;;;;;2.70;2.43;;;;;;;;;;5053552;28;20518;-63
2021/08/09 10:33:00;;;;;;;3.53;2.57;;;;;;;;;;5052939;28;20205;-63
2021/08/09 10:35:50;;;;;;;5.03;2.40;;;;;;;;;;5053596;28;20770;-64
2021/08/09 10:38:22;;;;;;;9.50;2.63;;;;;;;;;;5053881;28;20436;-63
2021/08/09 10:41:07;;;;;;;4.90;2.63;;;;;;;;;;5057470;28;20456;-64
2021/08/09 10:43:33;;;;;;;4.33;2.47;;;;;;;;;;5057229;28;20481;-63
2021/08/09 10:45:58;;;;;;;4.23;2.70;;;;;;;;;;5057540;28;20459;-63
2021/08/09 10:48:42;;;;;;;3.87;2.70;;;;;;;;;;5049651;28;20291;-63
2021/08/09 10:51:07;;;;;;;4.37;2.43;;;;;;;;;;5037011;28;20583;-63
2021/08/09 10:53:35;;;;;;;3.03;2.67;;;;;;;;;;5036967;28;20460;-64
2021/08/09 10:56:02;;;;;;;6.43;2.80;;;;;;;;;;5042577;28;20220;-64
2021/08/09 10:58:42;;;;;;;5.67;2.60;;;;;;;;;;5055948;28;20956;-63
2021/08/09 11:01:15;;;;;;;3.80;2.40;;;;;;;;;;5057187;28;20786;-64
2021/08/09 11:04:02;;;;;;;2.90;2.20;;;;;;;;;;5056900;28;20466;-63
2021/08/09 11:06:37;;;;;;;4.00;2.80;;;;;;;;;;5056839;28;20530;-63
2021/08/09 11:09:35;;;;;;;3.30;2.10;;;;;;;;;;5056958;28;20546;-64
2021/08/09 11:12:22;;;;;;;5.60;2.83;;;;;;;;;;5056262;28;20487;-63
2021/08/09 11:15:00;;;;;;;4.47;2.80;;;;;;;;;;5057097;28;20447;-64
2021/08/09 11:17:25;;;;;;;2.20;2.10;;;;;;;;;;5056757;28;20440;-64
2021/08/09 11:19:51;;;;;;;3.30;2.47;;;;;;;;;;5057015;28;20455;-63
2021/08/09 11:22:17;;;;;;;3.40;2.93;;;;;;;;;;5056550;28;20654;-63
2021/08/09 11:24:42;;;;;;;3.87;2.50;;;;;;;;;;5056768;28;20672;-64
2021/08/09 11:27:08;;;;;;;2.53;2.00;;;;;;;;;;5056499;28;20466;-63
2021/08/09 11:29:52;;;;;;;5.33;4.80;;;;;;;;;;5056661;28;20221;-64
2021/08/09 11:32:37;;;;;;;5.70;2.40;;;;;;;;;;5051583;28;20209;-64
2021/08/09 11:35:03;;;;;;;3.90;2.00;;;;;;;;;;5040166;28;20452;-64
2021/08/09 11:37:28;;;;;;;2.37;1.93;;;;;;;;;;5035722;28;20464;-63
2021/08/09 11:39:54;;;;;;;4.10;2.10;;;;;;;;;;5038422;28;20240;-63
2021/08/09 11:42:19;;;;;;;4.03;2.20;;;;;;;;;;5056106;28;20217;-64
2021/08/09 11:44:45;;;;;;;3.53;1.93;;;;;;;;;;5056470;28;20217;-64
2021/08/09 11:47:13;;;;;;;5.40;2.50;;;;;;;;;;5056064;28;20221;-63
2021/08/09 11:49:38;;;;;;;3.60;2.10;;;;;;;;;;5037274;28;20790;-64
2021/08/09 11:52:03;;;;;;;3.03;2.20;;;;;;;;;;5035775;28;20461;-64
2021/08/09 11:54:38;;;;;;;2.13;1.67;;;;;;;;;;5036541;28;20608;-64
2021/08/09 11:57:04;;;;;;;3.67;2.50;;;;;;;;;;5049738;28;20216;-64
2021/08/09 11:59:31;;;;;;;3.77;2.27;;;;;;;;;;5056256;28;20792;-64
2021/08/09 12:02:13;;;;;;;4.23;2.60;;;;;;;;;;5056073;28;20220;-64
2021/08/09 12:04:43;;;;;;;4.43;2.30;;;;;;;;;;5055276;28;20459;-63
2021/08/09 12:07:20;;;;;;;4.00;2.00;;;;;;;;;;5055829;28;20877;-64
2021/08/09 12:09:46;;;;;;;1.90;1.77;;;;;;;;;;5055400;28;20460;-64
2021/08/09 12:12:13;;;;;;;2.17;1.80;;;;;;;;;;5055879;28;20468;-63
2021/08/09 12:14:38;;;;;;;3.27;2.50;;;;;;;;;;5055918;28;20547;-64
2021/08/09 12:17:16;;;;;;;2.70;1.80;;;;;;;;;;5055531;28;20526;-64
2021/08/09 12:19:43;;;;;;;4.13;2.63;;;;;;;;;;5054777;28;20231;-63
2021/08/09 12:22:16;;;;;;;3.40;2.03;;;;;;;;;;5055499;28;20443;-63
2021/08/09 12:24:43;;;;;;;3.30;1.97;;;;;;;;;;5054969;28;20466;-64
2021/08/09 12:27:19;;;;;;;3.83;2.10;;;;;;;;;;5055275;28;20782;-63
2021/08/09 12:30:09;;;;;;;6.77;2.50;;;;;;;;;;5055598;28;20455;-63
2021/08/09 12:32:36;;;;;;;3.60;2.03;;;;;;;;;;5050353;28;20944;-63
2021/08/09 12:35:03;;;;;;;3.33;2.20;;;;;;;;;;5055559;28;20451;-63
2021/08/09 12:37:28;;;;;;;2.33;2.13;;;;;;;;;;5055146;28;20486;-64
2021/08/09 12:40:12;;;;;;;5.33;2.73;;;;;;;;;;5055318;28;20460;-63
2021/08/09 12:42:37;;;;;;;4.50;2.50;;;;;;;;;;5055204;28;20296;-64
2021/08/09 12:45:03;;;;;;;3.27;2.00;;;;;;;;;;5055507;28;20598;-63
2021/08/09 12:47:28;;;;;;;3.60;2.13;;;;;;;;;;5055138;28;20594;-64
2021/08/09 12:49:53;;;;;;;4.70;2.23;;;;;;;;;;5036093;28;20780;-63
2021/08/09 12:52:19;;;;;;;3.43;2.20;;;;;;;;;;5035621;28;20222;-63
2021/08/09 12:54:44;;;;;;;2.17;1.73;;;;;;;;;;5035057;28;20559;-63
2021/08/09 12:57:11;;;;;;;4.40;2.07;;;;;;;;;;5050154;28;20221;-64
2021/08/09 12:59:36;;;;;;;3.50;2.07;;;;;;;;;;5054663;28;20674;-64
2021/08/09 13:02:02;;;;;;;5.83;2.10;;;;;;;;;;5054940;28;20490;-64
2021/08/09 13:04:27;;;;;;;2.87;1.80;;;;;;;;;;5054995;28;20292;-63
2021/08/09 13:06:52;;;;;;;3.10;2.40;;;;;;;;;;5054896;28;20300;-63
2021/08/09 13:09:18;;;;;;;3.80;2.53;;;;;;;;;;5053438;28;20318;-64
2021/08/09 13:11:43;;;;;;;2.70;2.03;;;;;;;;;;5034594;28;20214;-63
2021/08/09 13:14:08;;;;;;;4.83;2.40;;;;;;;;;;5035090;28;20644;-63
2021/08/09 13:16:35;;;;;;;2.80;2.30;;;;;;;;;;5034803;28;20217;-63
2021/08/09 13:19:01;;;;;;;4.20;2.20;;;;;;;;;;5034826;28;20541;-64
2021/08/09 13:21:26;;;;;;;3.23;2.50;;;;;;;;;;5034898;28;20460;-63
2021/08/09 13:23:51;;;;;;;2.80;2.03;;;;;;;;;;5034242;28;20210;-63
2021/08/09 13:26:17;;;;;;;6.50;2.70;;;;;;;;;;5033935;28;20229;-63
2021/08/09 13:28:42;;;;;;;2.70;1.83;;;;;;;;;;5034245;28;20284;-64
2021/08/09 13:31:07;;;;;;;3.03;2.10;;;;;;;;;;5034658;28;20297;-63
2021/08/09 13:33:33;;;;;;;4.27;2.43;;;;;;;;;;5049769;28;20636;-63
2021/08/09 13:36:00;;;;;;;3.80;2.20;;;;;;;;;;5054411;28;20216;-63
2021/08/09 13:38:25;;;;;;;2.33;1.97;;;;;;;;;;5054699;28;20959;-63
2021/08/09 13:40:50;;;;;;;3.00;1.90;;;;;;;;;;5053833;28;20444;-63
2021/08/09 13:43:16;;;;;;;2.90;2.33;;;;;;;;;;5054507;28;20217;-64
2021/08/09 13:45:41;;;;;;;2.70;2.03;;;;;;;;;;5053812;28;20308;-63
2021/08/09 13:48:06;;;;;;;2.93;2.00;;;;;;;;;;5049569;28;20214;-63
2021/08/09 13:50:32;;;;;;;3.20;2.10;;;;;;;;;;5033815;28;20232;-64
2021/08/09 13:52:57;;;;;;;3.77;2.40;;;;;;;;;;5044529;28;20220;-63
2021/08/09 13:55:23;;;;;;;4.70;2.20;;;;;;;;;;5054142;28;20209;-63
2021/08/09 13:57:49;;;;;;;3.03;2.00;;;;;;;;;;5053622;28;20217;-64
2021/08/09 14:00:15;;;;;;;3.80;2.13;;;;;;;;;;5054076;28;20220;-65
2021/08/09 14:02:40;;;;;;;3.83;2.30;;;;;;;;;;5053652;28;20213;-64
2021/08/09 14:05:08;;;;;;;3.00;2.70;;;;;;;;;;5054010;28;20802;-63
2021/08/09 14:07:33;;;;;;;3.07;1.90;;;;;;;;;;5053576;28;20244;-63
2021/08/09 14:09:58;;;;;;;6.40;2.47;;;;;;;;;;5053763;28;20530;-64
2021/08/09 14:12:23;;;;;;;3.03;2.33;;;;;;;;;;5053827;28;20244;-64
2021/08/09 14:14:49;;;;;;;3.83;2.57;;;;;;;;;;5053316;28;20248;-64
2021/08/09 14:17:14;;;;;;;4.30;2.07;;;;;;;;;;5053932;28;20213;-63
2021/08/09 14:19:39;;;;;;;3.37;2.30;;;;;;;;;;5052511;28;20294;-64
2021/08/09 14:22:04;;;;;;;5.07;2.53;;;;;;;;;;5053792;28;20303;-65
2021/08/09 14:24:30;;;;;;;5.13;2.47;;;;;;;;;;5053682;28;20613;-65
2021/08/09 14:26:55;;;;;;;4.43;2.20;;;;;;;;;;5053274;28;20209;-64
2021/08/09 14:29:20;;;;;;;3.60;2.07;;;;;;;;;;5053487;28;20221;-64
2021/08/09 14:31:46;;;;;;;2.43;2.17;;;;;;;;;;5051404;28;20217;-64
2021/08/09 14:34:11;;;;;;;2.80;1.90;;;;;;;;;;5032786;28;20218;-63
2021/08/09 14:36:37;;;;;;;3.47;2.73;;;;;;;;;;5033292;28;20293;-65
2021/08/09 14:39:02;;;;;;;4.73;2.50;;;;;;;;;;5033841;28;20213;-65
2021/08/09 14:41:27;;;;;;;2.73;2.00;;;;;;;;;;5048300;28;20538;-64
2021/08/09 14:43:53;;;;;;;2.67;2.30;;;;;;;;;;5053278;28;20216;-64